East Berkshire, Vermont
Current Conditions -  °F | °C
As of 1:55 PM on Saturday 25 Oct 2014 (Local Time) from KFSO Reporting Station
Overcast Overcast  
Wind Chill: 56°   Ceiling: 4900
Heat Index: 56°   Visibility: 10mi
Dew Point: 42°   Wind: 7mph
Humidity: 61%   Direction: 200°SSW
Pressure: 29.59"   Gusts: NA
Location:  44.94°N, 72.71°W
Report Text: KFSO 251755Z AUTO 20006KT 10SM OVC049 13/06 A2959 RMK AO2 T01310057 10131 20050
Loading
Personal Weather Stations






























Interactive Weather Map
Tropical Storm Tracking
New forecast layout! Learn more

10-Day Weather Forecast

Advertisements
Track Severe Weather on mobile